Map

Track Data

SID SEASON NUMBER BASIN SUBBASIN NAME ISO_TIME NATURE LAT LON WMO_WIND WMO_PRES WMO_AGENCY TRACK_TYPE DIST2LAND LANDFALL IFLAG USA_AGENCY USA_ATCF_ID USA_LAT USA_LON USA_RECORD USA_STATUS USA_WIND USA_PRES USA_SSHS USA_R34_NE USA_R34_SE USA_R34_SW USA_R34_NW USA_R50_NE USA_R50_SE USA_R50_SW USA_R50_NW USA_R64_NE USA_R64_SE USA_R64_SW USA_R64_NW USA_POCI USA_ROCI USA_RMW USA_EYE TOKYO_LAT TOKYO_LON TOKYO_GRADE TOKYO_WIND TOKYO_PRES TOKYO_R50_DIR TOKYO_R50_LONG TOKYO_R50_SHORT TOKYO_R30_DIR TOKYO_R30_LONG TOKYO_R30_SHORT TOKYO_LAND CMA_LAT CMA_LON CMA_CAT CMA_WIND CMA_PRES HKO_LAT HKO_LON HKO_CAT HKO_WIND HKO_PRES NEWDELHI_LAT NEWDELHI_LON NEWDELHI_GRADE NEWDELHI_WIND NEWDELHI_PRES NEWDELHI_CI NEWDELHI_DP NEWDELHI_POCI REUNION_LAT REUNION_LON REUNION_TYPE REUNION_WIND REUNION_PRES REUNION_TNUM REUNION_CI REUNION_RMW REUNION_R34_NE REUNION_R34_SE REUNION_R34_SW REUNION_R34_NW REUNION_R50_NE REUNION_R50_SE REUNION_R50_SW REUNION_R50_NW REUNION_R64_NE REUNION_R64_SE REUNION_R64_SW REUNION_R64_NW BOM_LAT BOM_LON BOM_TYPE BOM_WIND BOM_PRES BOM_TNUM BOM_CI BOM_RMW BOM_R34_NE BOM_R34_SE BOM_R34_SW BOM_R34_NW BOM_R50_NE BOM_R50_SE BOM_R50_SW BOM_R50_NW BOM_R64_NE BOM_R64_SE BOM_R64_SW BOM_R64_NW BOM_ROCI BOM_POCI BOM_EYE BOM_POS_METHOD BOM_PRES_METHOD NADI_LAT NADI_LON NADI_CAT NADI_WIND NADI_PRES WELLINGTON_LAT WELLINGTON_LON WELLINGTON_WIND WELLINGTON_PRES DS824_LAT DS824_LON DS824_STAGE DS824_WIND DS824_PRES TD9636_LAT TD9636_LON TD9636_STAGE TD9636_WIND TD9636_PRES TD9635_LAT TD9635_LON TD9635_WIND TD9635_PRES TD9635_ROCI NEUMANN_LAT NEUMANN_LON NEUMANN_CLASS NEUMANN_WIND NEUMANN_PRES MLC_LAT MLC_LON MLC_CLASS MLC_WIND MLC_PRES USA_GUST BOM_GUST BOM_GUST_PER REUNION_GUST REUNION_GUST_PER USA_SEAHGT USA_SEARAD_NE USA_SEARAD_SE USA_SEARAD_SW USA_SEARAD_NW STORM_SPEED STORM_DIR
1860336S08087 1861 35 SI MM NOT_NAMED 1860-12-01 06:00:00 NR -8.30000 86.8000 main 1531 1531 _____O________ -1 -8.30000 86.8000 99 9.90000 3 251
1860336S08087 1861 35 SI MM NOT_NAMED 1860-12-01 09:00:00 NR -8.34435 86.6667 main 1540 1540 _____P________ -1 -8.34435 86.6667 99 3 251
1860336S08087 1861 35 SI MM NOT_NAMED 1860-12-01 12:00:00 NR -8.38920 86.5329 main 1565 1565 _____P________ -1 -8.38920 86.5329 99 3 251
1860336S08087 1861 35 SI MM NOT_NAMED 1860-12-01 15:00:00 NR -8.43512 86.3983 main 1574 1574 _____P________ -1 -8.43512 86.3983 99 3 251
1860336S08087 1861 35 SI MM NOT_NAMED 1860-12-01 18:00:00 NR -8.48266 86.2626 main 1589 1589 _____P________ -1 -8.48266 86.2626 99 3 250
1860336S08087 1861 35 SI MM NOT_NAMED 1860-12-01 21:00:00 NR -8.53236 86.1253 main 1608 1608 _____P________ -1 -8.53236 86.1253 99 3 250
1860336S08087 1861 35 SI MM NOT_NAMED 1860-12-02 00:00:00 NR -8.58479 85.9860 main 1623 1623 _____P________ -1 -8.58479 85.9860 99 3 249
1860336S08087 1861 35 SI MM NOT_NAMED 1860-12-02 03:00:00 NR -8.64048 85.8444 main 1643 1643 _____P________ -1 -8.64048 85.8444 99 3 248
1860336S08087 1861 35 SI MM NOT_NAMED 1860-12-02 06:00:00 NR -8.70000 85.7000 main 1658 1658 _____O________ -1 -8.70000 85.7000 99 9.90000 3 247
1860336S08087 1861 35 SI MM NOT_NAMED 1860-12-02 09:00:00 NR -8.76373 85.5525 main 1673 1673 _____P________ -1 -8.76373 85.5525 99 3 246
1860336S08087 1861 35 SI MM NOT_NAMED 1860-12-02 12:00:00 NR -8.83146 85.4015 main 1692 1692 _____P________ -1 -8.83146 85.4015 99 3 245
1860336S08087 1861 35 SI MM NOT_NAMED 1860-12-02 15:00:00 NR -8.90279 85.2466 main 1717 1717 _____P________ -1 -8.90279 85.2466 99 3 245
1860336S08087 1861 35 SI MM NOT_NAMED 1860-12-02 18:00:00 NR -8.97733 85.0874 main 1732 1732 _____P________ -1 -8.97733 85.0874 99 4 245
1860336S08087 1861 35 SI MM NOT_NAMED 1860-12-02 21:00:00 NR -9.05472 84.9235 main 1747 1744 _____P________ -1 -9.05472 84.9235 99 4 244
1860336S08087 1861 35 SI MM NOT_NAMED 1860-12-03 00:00:00 NR -9.13455 84.7546 main 1744 1741 _____P________ -1 -9.13455 84.7546 99 4 244
1860336S08087 1861 35 SI MM NOT_NAMED 1860-12-03 03:00:00 NR -9.21644 84.5802 main 1749 1746 _____P________ -1 -9.21644 84.5802 99 4 245
1860336S08087 1861 35 SI MM NOT_NAMED 1860-12-03 06:00:00 NR -9.30000 84.4000 main 1754 1751 _____O________ -1 -9.30000 84.4000 99 9.90000 4 245
1860336S08087 1861 35 SI MM NOT_NAMED 1860-12-03 09:00:00 NR -9.36522 84.2498 main 1760 1757 _____P________ -1 -9.36522 84.2498 99 3 246
1860336S08087 1861 35 SI MM NOT_NAMED 1860-12-03 12:00:00 NR -9.43042 84.0976 main 1757 1757 _____P________ -1 -9.43042 84.0976 99 3 247
1860336S08087 1861 35 SI MM NOT_NAMED 1860-12-03 15:00:00 NR -9.49881 83.9375 main 1763 1761 _____P________ -1 -9.49881 83.9375 99 4 247
1860336S08087 1861 35 SI MM NOT_NAMED 1860-12-03 18:00:00 NR -9.57359 83.7632 main 1772 1768 _____P________ -1 -9.57359 83.7632 99 4 246
1860336S08087 1861 35 SI MM NOT_NAMED 1860-12-03 21:00:00 NR -9.65794 83.5685 main 1779 1775 _____P________ -1 -9.65794 83.5685 99 4 246
1860336S08087 1861 35 SI MM NOT_NAMED 1860-12-04 00:00:00 NR -9.75502 83.3472 main 1784 1780 _____P________ -1 -9.75502 83.3472 99 5 246
1860336S08087 1861 35 SI MM NOT_NAMED 1860-12-04 03:00:00 NR -9.86800 83.0931 main 1791 1788 _____P________ -1 -9.86800 83.0931 99 6 246
1860336S08087 1861 35 SI MM NOT_NAMED 1860-12-04 06:00:00 NR -10.0000 82.8000 main 1798 1796 _____O________ -1 -10.0000 82.8000 99 9.90000 7 246
1860336S08087 1861 35 SI MM NOT_NAMED 1860-12-04 09:00:00 NR -10.1509 82.4527 main 1816 1812 _____P________ -1 -10.1509 82.4527 99 8 246
1860336S08087 1861 35 SI MM NOT_NAMED 1860-12-04 12:00:00 NR -10.3197 82.0655 main 1822 1821 _____P________ -1 -10.3197 82.0655 99 9 246
1860336S08087 1861 35 SI MM NOT_NAMED 1860-12-04 15:00:00 NR -10.5046 81.6454 main 1840 1840 _____P________ -1 -10.5046 81.6454 99 9 246
1860336S08087 1861 35 SI MM NOT_NAMED 1860-12-04 18:00:00 NR -10.7034 81.1995 main 1861 1860 _____P________ -1 -10.7034 81.1995 99 10 245
1860336S08087 1861 35 SI MM NOT_NAMED 1860-12-04 21:00:00 NR -10.9143 80.7349 main 1882 1882 _____P________ -1 -10.9143 80.7349 99 10 245
1860336S08087 1861 35 SI MM NOT_NAMED 1860-12-05 00:00:00 NR -11.1352 80.2587 main 1905 1905 _____P________ -1 -11.1352 80.2587 99 10 244
1860336S08087 1861 35 SI MM NOT_NAMED 1860-12-05 03:00:00 NR -11.3644 79.7781 main 1940 1940 _____P________ -1 -11.3644 79.7781 99 11 244
1860336S08087 1861 35 SI MM NOT_NAMED 1860-12-05 06:00:00 NR -11.6000 79.3000 reunion main 1966 1966 _____O________ -1 -11.6000 79.3000 99 9.90000 11 243
1860336S08087 1861 35 SI MM NOT_NAMED 1860-12-05 09:00:00 NR -11.8568 78.8061 main 2004 2004 _____P________ -1 -11.8568 78.8061 99 11 242
1860336S08087 1861 35 SI MM NOT_NAMED 1860-12-05 12:00:00 NR -12.1251 78.3039 main 2032 2032 _____P________ -1 -12.1251 78.3039 99 11 241
1860336S08087 1861 35 SI MM NOT_NAMED 1860-12-05 15:00:00 NR -12.3982 77.8037 main 2073 2073 _____P________ -1 -12.3982 77.8037 99 11 241
1860336S08087 1861 35 SI MM NOT_NAMED 1860-12-05 18:00:00 NR -12.6693 77.3158 main 2115 2115 _____P________ -1 -12.6693 77.3158 99 11 240
1860336S08087 1861 35 SI MM NOT_NAMED 1860-12-05 21:00:00 NR -12.9316 76.8509 main 2145 2132 _____P________ -1 -12.9316 76.8509 99 10 240
1860336S08087 1861 35 SI MM NOT_NAMED 1860-12-06 00:00:00 NR -13.1786 76.4194 main 2132 2093 _____P________ -1 -13.1786 76.4194 99 9 239
1860336S08087 1861 35 SI MM NOT_NAMED 1860-12-06 03:00:00 NR -13.4035 76.0322 main 2083 2044 _____P________ -1 -13.4035 76.0322 99 8 239
1860336S08087 1861 35 SI MM NOT_NAMED 1860-12-06 06:00:00 NR -13.6000 75.7000 reunion main 2044 2006 _____O________ -1 -13.6000 75.7000 99 9.90000 7 238
1860336S08087 1861 35 SI MM NOT_NAMED 1860-12-06 09:00:00 NR -13.7633 75.4304 main 2006 1981 _____P________ -1 -13.7633 75.4304 99 6 238
1860336S08087 1861 35 SI MM NOT_NAMED 1860-12-06 12:00:00 NR -13.8961 75.2185 main 1981 1967 _____P________ -1 -13.8961 75.2185 99 4 237
1860336S08087 1861 35 SI MM NOT_NAMED 1860-12-06 15:00:00 NR -14.0029 75.0562 main 1967 1943 _____P________ -1 -14.0029 75.0562 99 3 235
1860336S08087 1861 35 SI MM NOT_NAMED 1860-12-06 18:00:00 NR -14.0882 74.9353 main 1943 1938 _____P________ -1 -14.0882 74.9353 99 3 233
1860336S08087 1861 35 SI MM NOT_NAMED 1860-12-06 21:00:00 NR -14.1562 74.8474 main 1928 1928 _____P________ -1 -14.1562 74.8474 99 2 231
1860336S08087 1861 35 SI MM NOT_NAMED 1860-12-07 00:00:00 NR -14.2113 74.7845 main 1928 1914 _____P________ -1 -14.2113 74.7845 99 1 227
1860336S08087 1861 35 SI MM NOT_NAMED 1860-12-07 03:00:00 NR -14.2578 74.7381 main 1914 1914 _____P________ -1 -14.2578 74.7381 99 1 222
1860336S08087 1861 35 SI MM NOT_NAMED 1860-12-07 06:00:00 NR -14.3000 74.7000 reunion main 1914 _____O________ -1 -14.3000 74.7000 99 9.90000 1 221

About IBTrACS Database

This database is a web-friendly format of International Best Track Archive for Climate Stewardship (IBTrACS), a global best track data archive curated by NOAA dating back to 1842.

Updated: 2021-10-25